sensor_id;sensor_type;location;lat;lon;timestamp;P1;durP1;ratioP1;P2;durP2;ratioP2
47882;SDS011;37739;50.350;7.578;2023-04-21T00:02:15;7.40;;;6.80;;
47882;SDS011;37739;50.350;7.578;2023-04-21T00:04:42;7.30;;;6.60;;
47882;SDS011;37739;50.350;7.578;2023-04-21T00:07:10;7.50;;;6.80;;
47882;SDS011;37739;50.350;7.578;2023-04-21T00:09:36;7.10;;;6.50;;
47882;SDS011;37739;50.350;7.578;2023-04-21T00:12:01;6.70;;;6.20;;
47882;SDS011;37739;50.350;7.578;2023-04-21T00:14:26;6.90;;;6.30;;
47882;SDS011;37739;50.350;7.578;2023-04-21T00:16:52;6.63;;;5.87;;
47882;SDS011;37739;50.350;7.578;2023-04-21T00:19:18;7.10;;;6.50;;
47882;SDS011;37739;50.350;7.578;2023-04-21T00:21:44;7.20;;;6.63;;
47882;SDS011;37739;50.350;7.578;2023-04-21T00:24:09;7.83;;;7.23;;
47882;SDS011;37739;50.350;7.578;2023-04-21T00:26:37;8.40;;;7.63;;
47882;SDS011;37739;50.350;7.578;2023-04-21T00:29:04;7.10;;;6.50;;
47882;SDS011;37739;50.350;7.578;2023-04-21T00:31:32;7.93;;;7.33;;
47882;SDS011;37739;50.350;7.578;2023-04-21T00:33:57;7.77;;;7.17;;
47882;SDS011;37739;50.350;7.578;2023-04-21T00:36:27;9.00;;;8.20;;
47882;SDS011;37739;50.350;7.578;2023-04-21T00:38:52;10.10;;;9.23;;
47882;SDS011;37739;50.350;7.578;2023-04-21T00:41:18;9.90;;;9.00;;
47882;SDS011;37739;50.350;7.578;2023-04-21T00:44:02;8.70;;;8.00;;
47882;SDS011;37739;50.350;7.578;2023-04-21T00:46:32;9.10;;;8.30;;
47882;SDS011;37739;50.350;7.578;2023-04-21T00:49:03;9.20;;;8.50;;
47882;SDS011;37739;50.350;7.578;2023-04-21T00:51:30;10.50;;;9.60;;
47882;SDS011;37739;50.350;7.578;2023-04-21T00:54:00;12.40;;;11.30;;
47882;SDS011;37739;50.350;7.578;2023-04-21T00:56:31;10.73;;;9.90;;
47882;SDS011;37739;50.350;7.578;2023-04-21T00:58:58;10.60;;;9.73;;
47882;SDS011;37739;50.350;7.578;2023-04-21T01:01:25;12.37;;;11.30;;
47882;SDS011;37739;50.350;7.578;2023-04-21T01:03:55;13.47;;;12.27;;
47882;SDS011;37739;50.350;7.578;2023-04-21T01:06:22;11.40;;;10.40;;
47882;SDS011;37739;50.350;7.578;2023-04-21T01:08:54;15.97;;;14.47;;
47882;SDS011;37739;50.350;7.578;2023-04-21T01:11:22;13.17;;;11.87;;
47882;SDS011;37739;50.350;7.578;2023-04-21T01:13:50;14.13;;;12.93;;
47882;SDS011;37739;50.350;7.578;2023-04-21T01:16:22;13.10;;;12.00;;
47882;SDS011;37739;50.350;7.578;2023-04-21T01:18:48;14.27;;;13.00;;
47882;SDS011;37739;50.350;7.578;2023-04-21T01:21:18;13.10;;;11.87;;
47882;SDS011;37739;50.350;7.578;2023-04-21T01:23:45;13.17;;;12.07;;
47882;SDS011;37739;50.350;7.578;2023-04-21T01:26:10;12.83;;;11.70;;
47882;SDS011;37739;50.350;7.578;2023-04-21T01:28:38;13.03;;;11.93;;
47882;SDS011;37739;50.350;7.578;2023-04-21T01:31:06;14.03;;;12.80;;
47882;SDS011;37739;50.350;7.578;2023-04-21T01:33:34;14.60;;;13.30;;
47882;SDS011;37739;50.350;7.578;2023-04-21T01:36:01;14.57;;;13.27;;
47882;SDS011;37739;50.350;7.578;2023-04-21T01:38:27;14.40;;;13.10;;
47882;SDS011;37739;50.350;7.578;2023-04-21T01:40:52;17.50;;;15.90;;
47882;SDS011;37739;50.350;7.578;2023-04-21T01:43:21;16.10;;;14.50;;
47882;SDS011;37739;50.350;7.578;2023-04-21T01:45:48;17.10;;;15.43;;
47882;SDS011;37739;50.350;7.578;2023-04-21T01:48:15;16.60;;;14.90;;
47882;SDS011;37739;50.350;7.578;2023-04-21T01:50:43;19.20;;;17.43;;
47882;SDS011;37739;50.350;7.578;2023-04-21T01:53:08;16.60;;;15.03;;
47882;SDS011;37739;50.350;7.578;2023-04-21T01:55:34;14.93;;;13.60;;
47882;SDS011;37739;50.350;7.578;2023-04-21T01:57:59;14.20;;;12.90;;
47882;SDS011;37739;50.350;7.578;2023-04-21T02:00:25;17.70;;;16.10;;
47882;SDS011;37739;50.350;7.578;2023-04-21T02:02:53;17.13;;;15.50;;
47882;SDS011;37739;50.350;7.578;2023-04-21T02:05:19;16.13;;;14.63;;
47882;SDS011;37739;50.350;7.578;2023-04-21T02:07:46;16.00;;;14.50;;
47882;SDS011;37739;50.350;7.578;2023-04-21T02:10:14;16.30;;;14.80;;
47882;SDS011;37739;50.350;7.578;2023-04-21T02:12:40;17.10;;;15.50;;
47882;SDS011;37739;50.350;7.578;2023-04-21T02:15:07;15.63;;;14.17;;
47882;SDS011;37739;50.350;7.578;2023-04-21T02:17:35;13.87;;;12.40;;
47882;SDS011;37739;50.350;7.578;2023-04-21T02:20:06;17.53;;;15.83;;
47882;SDS011;37739;50.350;7.578;2023-04-21T02:22:32;17.73;;;16.03;;
47882;SDS011;37739;50.350;7.578;2023-04-21T02:24:57;18.80;;;16.80;;
47882;SDS011;37739;50.350;7.578;2023-04-21T02:27:22;16.20;;;14.70;;
47882;SDS011;37739;50.350;7.578;2023-04-21T02:29:48;15.07;;;13.70;;
47882;SDS011;37739;50.350;7.578;2023-04-21T02:32:13;16.47;;;14.90;;
47882;SDS011;37739;50.350;7.578;2023-04-21T02:34:38;16.50;;;14.90;;
47882;SDS011;37739;50.350;7.578;2023-04-21T02:37:06;16.70;;;15.10;;
47882;SDS011;37739;50.350;7.578;2023-04-21T02:39:31;15.60;;;13.97;;
47882;SDS011;37739;50.350;7.578;2023-04-21T02:41:56;17.57;;;15.80;;
47882;SDS011;37739;50.350;7.578;2023-04-21T02:44:22;16.10;;;14.50;;
47882;SDS011;37739;50.350;7.578;2023-04-21T02:46:47;15.20;;;13.80;;
47882;SDS011;37739;50.350;7.578;2023-04-21T02:49:17;15.23;;;13.87;;
47882;SDS011;37739;50.350;7.578;2023-04-21T02:51:45;15.97;;;14.43;;
47882;SDS011;37739;50.350;7.578;2023-04-21T02:54:15;10.77;;;9.77;;
47882;SDS011;37739;50.350;7.578;2023-04-21T02:56:42;14.67;;;13.17;;
47882;SDS011;37739;50.350;7.578;2023-04-21T02:59:07;17.07;;;15.47;;
47882;SDS011;37739;50.350;7.578;2023-04-21T03:01:38;15.90;;;14.40;;
47882;SDS011;37739;50.350;7.578;2023-04-21T03:04:08;17.70;;;15.83;;
47882;SDS011;37739;50.350;7.578;2023-04-21T03:06:33;15.67;;;14.23;;
47882;SDS011;37739;50.350;7.578;2023-04-21T03:09:01;17.03;;;15.43;;
47882;SDS011;37739;50.350;7.578;2023-04-21T03:11:26;18.30;;;16.57;;
47882;SDS011;37739;50.350;7.578;2023-04-21T03:13:54;17.80;;;16.07;;
47882;SDS011;37739;50.350;7.578;2023-04-21T03:16:19;17.37;;;15.77;;
47882;SDS011;37739;50.350;7.578;2023-04-21T03:18:47;18.10;;;16.40;;
47882;SDS011;37739;50.350;7.578;2023-04-21T03:21:15;15.47;;;13.97;;
47882;SDS011;37739;50.350;7.578;2023-04-21T03:23:42;17.43;;;15.73;;
47882;SDS011;37739;50.350;7.578;2023-04-21T03:26:11;15.70;;;14.10;;
47882;SDS011;37739;50.350;7.578;2023-04-21T03:28:41;16.37;;;14.87;;
47882;SDS011;37739;50.350;7.578;2023-04-21T03:31:06;17.57;;;15.87;;
47882;SDS011;37739;50.350;7.578;2023-04-21T03:33:32;16.30;;;14.80;;
47882;SDS011;37739;50.350;7.578;2023-04-21T03:35:57;19.40;;;17.40;;
47882;SDS011;37739;50.350;7.578;2023-04-21T03:38:27;17.90;;;16.20;;
47882;SDS011;37739;50.350;7.578;2023-04-21T03:40:52;18.13;;;16.37;;
47882;SDS011;37739;50.350;7.578;2023-04-21T03:43:18;17.70;;;16.00;;
47882;SDS011;37739;50.350;7.578;2023-04-21T03:45:43;16.57;;;14.97;;
47882;SDS011;37739;50.350;7.578;2023-04-21T03:48:08;16.73;;;15.13;;
47882;SDS011;37739;50.350;7.578;2023-04-21T03:50:34;16.50;;;15.00;;
47882;SDS011;37739;50.350;7.578;2023-04-21T03:52:59;17.90;;;16.20;;
47882;SDS011;37739;50.350;7.578;2023-04-21T03:55:27;18.23;;;16.53;;
47882;SDS011;37739;50.350;7.578;2023-04-21T03:57:54;18.90;;;16.90;;
47882;SDS011;37739;50.350;7.578;2023-04-21T04:00:22;16.73;;;15.23;;
47882;SDS011;37739;50.350;7.578;2023-04-21T04:02:51;18.43;;;16.57;;
47882;SDS011;37739;50.350;7.578;2023-04-21T04:05:16;17.73;;;16.00;;
47882;SDS011;37739;50.350;7.578;2023-04-21T04:07:41;17.73;;;16.10;;
47882;SDS011;37739;50.350;7.578;2023-04-21T04:10:07;16.97;;;15.37;;
47882;SDS011;37739;50.350;7.578;2023-04-21T04:12:32;16.97;;;15.27;;
47882;SDS011;37739;50.350;7.578;2023-04-21T04:14:57;18.00;;;16.20;;
47882;SDS011;37739;50.350;7.578;2023-04-21T04:17:25;17.03;;;15.30;;
47882;SDS011;37739;50.350;7.578;2023-04-21T04:19:52;17.20;;;15.50;;
47882;SDS011;37739;50.350;7.578;2023-04-21T04:22:18;16.80;;;15.20;;
47882;SDS011;37739;50.350;7.578;2023-04-21T04:24:45;16.50;;;14.97;;
47882;SDS011;37739;50.350;7.578;2023-04-21T04:27:11;19.00;;;17.20;;
47882;SDS011;37739;50.350;7.578;2023-04-21T04:29:40;18.70;;;16.90;;
47882;SDS011;37739;50.350;7.578;2023-04-21T04:32:06;19.90;;;18.00;;
47882;SDS011;37739;50.350;7.578;2023-04-21T04:34:34;18.60;;;16.83;;
47882;SDS011;37739;50.350;7.578;2023-04-21T04:37:01;17.13;;;15.50;;
47882;SDS011;37739;50.350;7.578;2023-04-21T04:39:30;15.90;;;14.37;;
47882;SDS011;37739;50.350;7.578;2023-04-21T04:41:57;17.73;;;15.93;;
47882;SDS011;37739;50.350;7.578;2023-04-21T04:44:23;17.90;;;16.03;;
47882;SDS011;37739;50.350;7.578;2023-04-21T04:46:54;16.33;;;14.70;;
47882;SDS011;37739;50.350;7.578;2023-04-21T04:49:20;16.93;;;15.23;;
47882;SDS011;37739;50.350;7.578;2023-04-21T04:51:50;17.43;;;15.70;;
47882;SDS011;37739;50.350;7.578;2023-04-21T04:54:16;15.63;;;14.10;;
47882;SDS011;37739;50.350;7.578;2023-04-21T04:56:41;15.27;;;13.87;;
47882;SDS011;37739;50.350;7.578;2023-04-21T04:59:08;15.83;;;14.30;;
47882;SDS011;37739;50.350;7.578;2023-04-21T05:01:34;15.87;;;14.27;;
47882;SDS011;37739;50.350;7.578;2023-04-21T05:04:05;16.03;;;14.33;;
47882;SDS011;37739;50.350;7.578;2023-04-21T05:06:31;15.23;;;13.73;;
47882;SDS011;37739;50.350;7.578;2023-04-21T05:08:56;15.03;;;13.63;;
47882;SDS011;37739;50.350;7.578;2023-04-21T05:11:24;12.60;;;11.40;;
47882;SDS011;37739;50.350;7.578;2023-04-21T05:13:52;13.90;;;12.50;;
47882;SDS011;37739;50.350;7.578;2023-04-21T05:16:17;13.23;;;11.90;;
47882;SDS011;37739;50.350;7.578;2023-04-21T05:18:47;15.87;;;13.27;;
47882;SDS011;37739;50.350;7.578;2023-04-21T05:21:26;13.87;;;12.47;;
47882;SDS011;37739;50.350;7.578;2023-04-21T05:23:53;12.00;;;10.60;;
47882;SDS011;37739;50.350;7.578;2023-04-21T05:26:19;13.47;;;12.13;;
47882;SDS011;37739;50.350;7.578;2023-04-21T05:28:47;16.17;;;14.27;;
47882;SDS011;37739;50.350;7.578;2023-04-21T05:31:12;14.07;;;11.93;;
47882;SDS011;37739;50.350;7.578;2023-04-21T05:33:37;14.73;;;13.27;;
47882;SDS011;37739;50.350;7.578;2023-04-21T05:36:06;14.53;;;13.13;;
47882;SDS011;37739;50.350;7.578;2023-04-21T05:38:33;14.67;;;13.20;;
47882;SDS011;37739;50.350;7.578;2023-04-21T05:41:00;15.10;;;13.60;;
47882;SDS011;37739;50.350;7.578;2023-04-21T05:43:26;15.60;;;14.00;;
47882;SDS011;37739;50.350;7.578;2023-04-21T05:45:52;14.07;;;12.63;;
47882;SDS011;37739;50.350;7.578;2023-04-21T05:48:17;13.37;;;12.00;;
47882;SDS011;37739;50.350;7.578;2023-04-21T05:50:45;13.87;;;12.47;;
47882;SDS011;37739;50.350;7.578;2023-04-21T05:53:12;14.30;;;12.77;;
47882;SDS011;37739;50.350;7.578;2023-04-21T05:55:40;14.67;;;13.17;;
47882;SDS011;37739;50.350;7.578;2023-04-21T05:58:07;12.50;;;11.20;;
47882;SDS011;37739;50.350;7.578;2023-04-21T06:00:37;13.23;;;11.93;;
47882;SDS011;37739;50.350;7.578;2023-04-21T06:03:02;15.10;;;13.70;;
47882;SDS011;37739;50.350;7.578;2023-04-21T06:05:28;15.67;;;14.07;;
47882;SDS011;37739;50.350;7.578;2023-04-21T06:07:56;14.87;;;13.47;;
47882;SDS011;37739;50.350;7.578;2023-04-21T06:10:21;14.30;;;12.80;;
47882;SDS011;37739;50.350;7.578;2023-04-21T06:12:46;14.97;;;13.43;;
47882;SDS011;37739;50.350;7.578;2023-04-21T06:15:14;14.83;;;13.33;;
47882;SDS011;37739;50.350;7.578;2023-04-21T06:17:39;14.37;;;13.00;;
47882;SDS011;37739;50.350;7.578;2023-04-21T06:20:04;14.80;;;13.33;;
47882;SDS011;37739;50.350;7.578;2023-04-21T06:22:34;14.63;;;13.20;;
47882;SDS011;37739;50.350;7.578;2023-04-21T06:25:01;13.17;;;11.87;;
47882;SDS011;37739;50.350;7.578;2023-04-21T06:27:30;13.43;;;12.13;;
47882;SDS011;37739;50.350;7.578;2023-04-21T06:30:00;17.27;;;15.47;;
47882;SDS011;37739;50.350;7.578;2023-04-21T06:32:30;14.47;;;13.07;;
47882;SDS011;37739;50.350;7.578;2023-04-21T06:34:55;15.00;;;13.50;;
47882;SDS011;37739;50.350;7.578;2023-04-21T06:37:23;14.70;;;13.20;;
47882;SDS011;37739;50.350;7.578;2023-04-21T06:39:48;15.03;;;13.57;;
47882;SDS011;37739;50.350;7.578;2023-04-21T06:42:14;15.70;;;14.07;;
47882;SDS011;37739;50.350;7.578;2023-04-21T06:44:41;13.60;;;12.20;;
47882;SDS011;37739;50.350;7.578;2023-04-21T06:47:07;13.30;;;11.90;;
47882;SDS011;37739;50.350;7.578;2023-04-21T06:49:37;16.23;;;14.53;;
47882;SDS011;37739;50.350;7.578;2023-04-21T06:52:03;14.80;;;13.30;;
47882;SDS011;37739;50.350;7.578;2023-04-21T06:54:28;14.97;;;13.47;;
47882;SDS011;37739;50.350;7.578;2023-04-21T06:56:54;17.07;;;15.30;;
47882;SDS011;37739;50.350;7.578;2023-04-21T06:59:23;15.57;;;13.97;;
47882;SDS011;37739;50.350;7.578;2023-04-21T07:01:51;16.23;;;14.53;;
47882;SDS011;37739;50.350;7.578;2023-04-21T07:04:19;14.57;;;13.07;;
47882;SDS011;37739;50.350;7.578;2023-04-21T07:06:45;13.83;;;12.50;;
47882;SDS011;37739;50.350;7.578;2023-04-21T07:09:11;14.50;;;13.10;;
47882;SDS011;37739;50.350;7.578;2023-04-21T07:11:36;13.60;;;12.13;;
47882;SDS011;37739;50.350;7.578;2023-04-21T07:14:04;15.97;;;12.93;;
47882;SDS011;37739;50.350;7.578;2023-04-21T07:16:30;14.57;;;13.13;;
47882;SDS011;37739;50.350;7.578;2023-04-21T07:18:56;15.30;;;13.70;;
47882;SDS011;37739;50.350;7.578;2023-04-21T07:21:21;12.97;;;11.67;;
47882;SDS011;37739;50.350;7.578;2023-04-21T07:23:48;15.57;;;13.47;;
47882;SDS011;37739;50.350;7.578;2023-04-21T07:26:14;13.57;;;12.27;;
47882;SDS011;37739;50.350;7.578;2023-04-21T07:28:39;14.60;;;13.10;;
47882;SDS011;37739;50.350;7.578;2023-04-21T07:31:07;14.23;;;12.73;;
47882;SDS011;37739;50.350;7.578;2023-04-21T07:33:35;14.03;;;12.67;;
47882;SDS011;37739;50.350;7.578;2023-04-21T07:36:00;10.23;;;9.20;;
47882;SDS011;37739;50.350;7.578;2023-04-21T07:38:29;12.80;;;11.60;;
47882;SDS011;37739;50.350;7.578;2023-04-21T07:40:55;13.10;;;11.80;;
47882;SDS011;37739;50.350;7.578;2023-04-21T07:43:20;12.37;;;11.10;;
47882;SDS011;37739;50.350;7.578;2023-04-21T07:45:46;13.90;;;12.50;;
47882;SDS011;37739;50.350;7.578;2023-04-21T07:48:15;14.10;;;12.70;;
47882;SDS011;37739;50.350;7.578;2023-04-21T07:50:43;13.73;;;12.40;;
47882;SDS011;37739;50.350;7.578;2023-04-21T07:53:08;13.70;;;12.40;;
47882;SDS011;37739;50.350;7.578;2023-04-21T07:55:36;12.80;;;11.50;;
47882;SDS011;37739;50.350;7.578;2023-04-21T07:58:03;13.57;;;12.27;;
47882;SDS011;37739;50.350;7.578;2023-04-21T08:00:29;14.03;;;12.73;;
47882;SDS011;37739;50.350;7.578;2023-04-21T08:02:57;13.50;;;12.20;;
47882;SDS011;37739;50.350;7.578;2023-04-21T08:05:22;13.50;;;12.20;;
47882;SDS011;37739;50.350;7.578;2023-04-21T08:07:47;15.20;;;13.70;;
47882;SDS011;37739;50.350;7.578;2023-04-21T08:10:15;13.03;;;11.70;;
47882;SDS011;37739;50.350;7.578;2023-04-21T08:12:41;13.47;;;11.97;;
47882;SDS011;37739;50.350;7.578;2023-04-21T08:15:06;13.40;;;12.00;;
47882;SDS011;37739;50.350;7.578;2023-04-21T08:17:32;13.50;;;12.17;;
47882;SDS011;37739;50.350;7.578;2023-04-21T08:20:00;10.53;;;9.53;;
47882;SDS011;37739;50.350;7.578;2023-04-21T08:22:28;12.20;;;11.00;;
47882;SDS011;37739;50.350;7.578;2023-04-21T08:24:54;12.73;;;11.43;;
47882;SDS011;37739;50.350;7.578;2023-04-21T08:27:19;13.10;;;11.80;;
47882;SDS011;37739;50.350;7.578;2023-04-21T08:29:44;11.83;;;10.73;;
47882;SDS011;37739;50.350;7.578;2023-04-21T08:32:10;11.87;;;10.80;;
47882;SDS011;37739;50.350;7.578;2023-04-21T08:34:35;14.50;;;13.10;;
47882;SDS011;37739;50.350;7.578;2023-04-21T08:37:00;11.53;;;10.47;;
47882;SDS011;37739;50.350;7.578;2023-04-21T08:39:26;10.80;;;9.80;;
47882;SDS011;37739;50.350;7.578;2023-04-21T08:41:53;13.57;;;12.30;;
47882;SDS011;37739;50.350;7.578;2023-04-21T08:44:19;14.80;;;13.40;;
47882;SDS011;37739;50.350;7.578;2023-04-21T08:46:45;13.30;;;12.00;;
47882;SDS011;37739;50.350;7.578;2023-04-21T08:49:13;12.40;;;11.10;;
47882;SDS011;37739;50.350;7.578;2023-04-21T08:51:45;14.90;;;13.27;;
47882;SDS011;37739;50.350;7.578;2023-04-21T08:54:13;12.40;;;11.20;;
47882;SDS011;37739;50.350;7.578;2023-04-21T08:56:42;12.03;;;10.93;;
47882;SDS011;37739;50.350;7.578;2023-04-21T08:59:09;9.63;;;8.63;;
47882;SDS011;37739;50.350;7.578;2023-04-21T09:04:46;12.40;;;11.27;;
47882;SDS011;37739;50.350;7.578;2023-04-21T09:10:08;9.20;;;8.30;;
47882;SDS011;37739;50.350;7.578;2023-04-21T09:12:34;10.57;;;9.67;;
47882;SDS011;37739;50.350;7.578;2023-04-21T09:15:05;10.83;;;9.77;;
47882;SDS011;37739;50.350;7.578;2023-04-21T09:17:34;10.43;;;9.43;;
47882;SDS011;37739;50.350;7.578;2023-04-21T09:20:21;10.27;;;9.37;;
47882;SDS011;37739;50.350;7.578;2023-04-21T09:22:47;9.80;;;8.90;;
47882;SDS011;37739;50.350;7.578;2023-04-21T09:25:15;9.90;;;9.00;;
47882;SDS011;37739;50.350;7.578;2023-04-21T09:27:43;10.40;;;9.50;;
47882;SDS011;37739;50.350;7.578;2023-04-21T09:30:09;10.43;;;9.50;;
47882;SDS011;37739;50.350;7.578;2023-04-21T09:32:40;8.40;;;7.60;;
47882;SDS011;37739;50.350;7.578;2023-04-21T09:35:09;10.53;;;9.53;;
47882;SDS011;37739;50.350;7.578;2023-04-21T09:37:39;8.30;;;7.60;;
47882;SDS011;37739;50.350;7.578;2023-04-21T09:40:07;8.70;;;8.00;;
47882;SDS011;37739;50.350;7.578;2023-04-21T09:42:37;7.60;;;7.00;;
47882;SDS011;37739;50.350;7.578;2023-04-21T09:45:02;7.90;;;7.20;;
47882;SDS011;37739;50.350;7.578;2023-04-21T09:47:30;8.70;;;8.00;;
47882;SDS011;37739;50.350;7.578;2023-04-21T09:50:02;6.87;;;6.27;;
47882;SDS011;37739;50.350;7.578;2023-04-21T09:52:33;7.60;;;6.90;;
47882;SDS011;37739;50.350;7.578;2023-04-21T09:55:07;8.20;;;7.50;;
47882;SDS011;37739;50.350;7.578;2023-04-21T09:57:37;7.90;;;7.17;;
47882;SDS011;37739;50.350;7.578;2023-04-21T10:00:06;7.60;;;7.00;;
47882;SDS011;37739;50.350;7.578;2023-04-21T10:02:33;6.73;;;6.17;;
47882;SDS011;37739;50.350;7.578;2023-04-21T10:05:01;8.67;;;7.87;;
47882;SDS011;37739;50.350;7.578;2023-04-21T10:07:32;8.03;;;7.37;;
47882;SDS011;37739;50.350;7.578;2023-04-21T10:10:00;7.57;;;6.90;;
47882;SDS011;37739;50.350;7.578;2023-04-21T10:12:27;7.70;;;7.10;;
47882;SDS011;37739;50.350;7.578;2023-04-21T10:14:57;7.50;;;6.90;;
47882;SDS011;37739;50.350;7.578;2023-04-21T10:17:23;6.80;;;6.20;;
47882;SDS011;37739;50.350;7.578;2023-04-21T10:19:54;8.10;;;7.40;;
47882;SDS011;37739;50.350;7.578;2023-04-21T10:22:31;7.70;;;6.97;;
47882;SDS011;37739;50.350;7.578;2023-04-21T10:24:58;8.27;;;7.57;;
47882;SDS011;37739;50.350;7.578;2023-04-21T10:27:38;7.63;;;6.80;;
47882;SDS011;37739;50.350;7.578;2023-04-21T10:30:18;7.20;;;6.60;;
47882;SDS011;37739;50.350;7.578;2023-04-21T10:32:47;7.93;;;7.13;;
47882;SDS011;37739;50.350;7.578;2023-04-21T10:35:56;6.90;;;6.30;;
47882;SDS011;37739;50.350;7.578;2023-04-21T10:38:33;8.80;;;7.90;;
47882;SDS011;37739;50.350;7.578;2023-04-21T10:44:06;6.70;;;6.10;;
47882;SDS011;37739;50.350;7.578;2023-04-21T10:49:11;7.17;;;6.47;;
47882;SDS011;37739;50.350;7.578;2023-04-21T10:57:06;5.97;;;5.10;;
47882;SDS011;37739;50.350;7.578;2023-04-21T10:59:33;5.53;;;4.90;;
47882;SDS011;37739;50.350;7.578;2023-04-21T11:02:00;5.50;;;5.00;;
47882;SDS011;37739;50.350;7.578;2023-04-21T11:04:37;6.37;;;5.77;;
47882;SDS011;37739;50.350;7.578;2023-04-21T11:07:22;6.00;;;5.50;;
47882;SDS011;37739;50.350;7.578;2023-04-21T11:10:09;5.57;;;5.10;;
47882;SDS011;37739;50.350;7.578;2023-04-21T11:12:37;5.47;;;5.07;;
47882;SDS011;37739;50.350;7.578;2023-04-21T11:15:12;4.70;;;4.30;;
47882;SDS011;37739;50.350;7.578;2023-04-21T11:17:39;5.33;;;4.83;;
47882;SDS011;37739;50.350;7.578;2023-04-21T11:20:07;5.60;;;5.13;;
47882;SDS011;37739;50.350;7.578;2023-04-21T11:22:35;4.83;;;4.43;;
47882;SDS011;37739;50.350;7.578;2023-04-21T11:25:01;5.10;;;4.60;;
47882;SDS011;37739;50.350;7.578;2023-04-21T11:27:29;5.63;;;5.13;;
47882;SDS011;37739;50.350;7.578;2023-04-21T11:29:57;5.07;;;4.67;;
47882;SDS011;37739;50.350;7.578;2023-04-21T11:32:22;6.00;;;5.40;;
47882;SDS011;37739;50.350;7.578;2023-04-21T11:34:50;5.57;;;4.80;;
47882;SDS011;37739;50.350;7.578;2023-04-21T11:37:24;5.37;;;4.87;;
47882;SDS011;37739;50.350;7.578;2023-04-21T11:39:58;5.07;;;4.57;;
47882;SDS011;37739;50.350;7.578;2023-04-21T11:42:24;4.30;;;3.90;;
47882;SDS011;37739;50.350;7.578;2023-04-21T11:44:53;4.63;;;4.23;;
47882;SDS011;37739;50.350;7.578;2023-04-21T11:47:24;4.93;;;4.53;;
47882;SDS011;37739;50.350;7.578;2023-04-21T11:49:51;6.70;;;4.67;;
47882;SDS011;37739;50.350;7.578;2023-04-21T11:52:25;5.90;;;5.40;;
47882;SDS011;37739;50.350;7.578;2023-04-21T11:54:57;6.17;;;5.67;;
47882;SDS011;37739;50.350;7.578;2023-04-21T11:57:24;4.70;;;4.40;;
47882;SDS011;37739;50.350;7.578;2023-04-21T11:59:51;5.90;;;5.30;;
47882;SDS011;37739;50.350;7.578;2023-04-21T12:02:20;7.10;;;6.50;;
47882;SDS011;37739;50.350;7.578;2023-04-21T12:05:07;6.63;;;6.13;;
47882;SDS011;37739;50.350;7.578;2023-04-21T12:07:36;7.57;;;6.93;;
47882;SDS011;37739;50.350;7.578;2023-04-21T12:10:11;6.90;;;6.30;;
47882;SDS011;37739;50.350;7.578;2023-04-21T12:12:43;6.80;;;6.10;;
47882;SDS011;37739;50.350;7.578;2023-04-21T12:15:16;7.33;;;6.73;;
47882;SDS011;37739;50.350;7.578;2023-04-21T12:17:49;6.83;;;6.30;;
47882;SDS011;37739;50.350;7.578;2023-04-21T12:20:17;6.50;;;5.90;;
47882;SDS011;37739;50.350;7.578;2023-04-21T12:22:44;7.60;;;6.90;;
47882;SDS011;37739;50.350;7.578;2023-04-21T12:25:09;7.83;;;5.10;;
47882;SDS011;37739;50.350;7.578;2023-04-21T12:27:46;6.57;;;5.97;;
47882;SDS011;37739;50.350;7.578;2023-04-21T12:30:15;7.63;;;7.00;;
47882;SDS011;37739;50.350;7.578;2023-04-21T12:32:45;6.80;;;6.20;;
47882;SDS011;37739;50.350;7.578;2023-04-21T12:35:11;7.07;;;6.47;;
47882;SDS011;37739;50.350;7.578;2023-04-21T12:37:37;6.07;;;5.50;;
47882;SDS011;37739;50.350;7.578;2023-04-21T12:40:04;6.17;;;5.67;;
47882;SDS011;37739;50.350;7.578;2023-04-21T12:42:32;9.00;;;8.30;;
47882;SDS011;37739;50.350;7.578;2023-04-21T12:45:00;8.00;;;7.20;;
47882;SDS011;37739;50.350;7.578;2023-04-21T12:47:28;8.37;;;7.67;;
47882;SDS011;37739;50.350;7.578;2023-04-21T12:49:56;7.50;;;6.90;;
47882;SDS011;37739;50.350;7.578;2023-04-21T12:52:21;9.07;;;8.13;;
47882;SDS011;37739;50.350;7.578;2023-04-21T12:54:50;7.80;;;7.20;;
47882;SDS011;37739;50.350;7.578;2023-04-21T12:57:15;8.40;;;7.70;;
47882;SDS011;37739;50.350;7.578;2023-04-21T12:59:40;8.80;;;8.00;;
47882;SDS011;37739;50.350;7.578;2023-04-21T13:02:06;8.67;;;7.90;;
47882;SDS011;37739;50.350;7.578;2023-04-21T13:04:36;8.90;;;8.10;;
47882;SDS011;37739;50.350;7.578;2023-04-21T13:07:02;7.67;;;7.03;;
47882;SDS011;37739;50.350;7.578;2023-04-21T13:09:31;7.37;;;6.77;;
47882;SDS011;37739;50.350;7.578;2023-04-21T13:11:58;7.70;;;6.90;;
47882;SDS011;37739;50.350;7.578;2023-04-21T13:14:23;7.60;;;6.90;;
47882;SDS011;37739;50.350;7.578;2023-04-21T13:16:49;7.80;;;7.10;;
47882;SDS011;37739;50.350;7.578;2023-04-21T13:19:14;7.37;;;5.93;;
47882;SDS011;37739;50.350;7.578;2023-04-21T13:21:42;6.90;;;6.30;;
47882;SDS011;37739;50.350;7.578;2023-04-21T13:24:07;7.37;;;6.70;;
47882;SDS011;37739;50.350;7.578;2023-04-21T13:26:35;7.13;;;6.53;;
47882;SDS011;37739;50.350;7.578;2023-04-21T13:29:03;8.97;;;8.17;;
47882;SDS011;37739;50.350;7.578;2023-04-21T13:31:34;7.07;;;6.47;;
47882;SDS011;37739;50.350;7.578;2023-04-21T15:08:21;4.97;;;4.30;;
47882;SDS011;37739;50.350;7.578;2023-04-21T15:10:46;4.30;;;3.90;;
47882;SDS011;37739;50.350;7.578;2023-04-21T15:13:16;3.50;;;3.20;;
47882;SDS011;37739;50.350;7.578;2023-04-21T15:15:41;3.57;;;3.27;;
47882;SDS011;37739;50.350;7.578;2023-04-21T15:18:07;3.83;;;3.53;;
47882;SDS011;37739;50.350;7.578;2023-04-21T15:20:32;3.53;;;3.27;;
47882;SDS011;37739;50.350;7.578;2023-04-21T15:22:57;4.10;;;3.70;;
47882;SDS011;37739;50.350;7.578;2023-04-21T15:25:25;4.43;;;4.10;;
47882;SDS011;37739;50.350;7.578;2023-04-21T15:27:53;7.60;;;3.80;;
47882;SDS011;37739;50.350;7.578;2023-04-21T15:30:20;4.97;;;3.90;;
47882;SDS011;37739;50.350;7.578;2023-04-21T15:32:50;3.90;;;3.60;;
47882;SDS011;37739;50.350;7.578;2023-04-21T15:35:18;3.67;;;3.37;;
47882;SDS011;37739;50.350;7.578;2023-04-21T15:37:46;5.17;;;3.43;;
47882;SDS011;37739;50.350;7.578;2023-04-21T15:40:11;4.00;;;3.70;;
47882;SDS011;37739;50.350;7.578;2023-04-21T15:42:37;3.60;;;3.30;;
47882;SDS011;37739;50.350;7.578;2023-04-21T15:45:02;3.67;;;3.37;;
47882;SDS011;37739;50.350;7.578;2023-04-21T15:47:28;3.77;;;3.47;;
47882;SDS011;37739;50.350;7.578;2023-04-21T15:49:55;4.43;;;4.03;;
47882;SDS011;37739;50.350;7.578;2023-04-21T15:52:21;4.67;;;4.37;;
47882;SDS011;37739;50.350;7.578;2023-04-21T15:54:48;3.90;;;3.60;;
47882;SDS011;37739;50.350;7.578;2023-04-21T15:57:14;3.63;;;3.33;;
47882;SDS011;37739;50.350;7.578;2023-04-21T15:59:40;3.80;;;3.27;;
47882;SDS011;37739;50.350;7.578;2023-04-21T16:02:10;3.80;;;3.50;;
47882;SDS011;37739;50.350;7.578;2023-04-21T16:04:35;3.73;;;3.43;;
47882;SDS011;37739;50.350;7.578;2023-04-21T16:07:01;3.40;;;3.10;;
47882;SDS011;37739;50.350;7.578;2023-04-21T16:09:28;3.23;;;3.03;;
47882;SDS011;37739;50.350;7.578;2023-04-21T16:11:56;3.60;;;3.30;;
47882;SDS011;37739;50.350;7.578;2023-04-21T16:14:21;3.30;;;2.87;;
47882;SDS011;37739;50.350;7.578;2023-04-21T16:16:50;3.63;;;3.33;;
47882;SDS011;37739;50.350;7.578;2023-04-21T16:19:17;3.73;;;3.43;;
47882;SDS011;37739;50.350;7.578;2023-04-21T16:21:43;3.53;;;3.23;;
47882;SDS011;37739;50.350;7.578;2023-04-21T16:24:11;4.30;;;3.90;;
47882;SDS011;37739;50.350;7.578;2023-04-21T16:26:36;3.83;;;3.53;;
47882;SDS011;37739;50.350;7.578;2023-04-21T16:29:04;3.40;;;3.10;;